Time;durP1;ratioP1;P1;durP2;ratioP2;P2;SDS_P1;SDS_P2;PMS_P1;PMS_P2;Temp;Humidity;BMP_temperature;BMP_pressure;BME280_temperature;BME280_humidity;BME280_pressure;Samples;Min_cycle;Max_cycle;Signal;HPM_P1;HPM_P2
2020/12/29 00:02:06;;;;;;;320.35;171.68;;;;;;;0.03;79.10;92892.91;1781199;80;21078;-52
2020/12/29 00:04:34;;;;;;;332.85;172.22;;;;;;;0.00;79.60;92872.14;1781255;80;21166;-50
2020/12/29 00:07:03;;;;;;;332.62;174.95;;;;;;;0.02;79.57;92880.58;1781279;80;21376;-49
2020/12/29 00:09:33;;;;;;;313.35;161.43;;;;;;;0.01;79.22;92894.67;1781187;80;21175;-48
2020/12/29 00:12:01;;;;;;;311.92;160.15;;;;;;;-0.04;79.31;92901.78;1781209;80;21606;-50
2020/12/29 00:14:29;;;;;;;280.07;146.45;;;;;;;-0.06;79.54;92901.45;1781266;80;21056;-50
2020/12/29 00:16:57;;;;;;;304.93;151.12;;;;;;;-0.04;79.92;92909.28;1781316;80;21064;-49
2020/12/29 00:19:27;;;;;;;361.65;187.40;;;;;;;-0.01;79.93;92887.58;1781295;80;21206;-50
2020/12/29 00:21:54;;;;;;;374.73;189.72;;;;;;;0.03;79.77;92878.78;1781194;80;21127;-50
2020/12/29 00:24:22;;;;;;;324.60;164.47;;;;;;;0.07;79.76;92861.88;1781292;80;21099;-54
2020/12/29 00:26:54;;;;;;;376.83;188.03;;;;;;;0.14;79.71;92860.94;1779964;80;21146;-52
2020/12/29 00:29:22;;;;;;;334.02;175.95;;;;;;;0.15;79.53;92869.20;1781112;80;21111;-54
2020/12/29 00:31:50;;;;;;;316.68;166.45;;;;;;;0.15;79.63;92873.27;1781186;80;21387;-51
2020/12/29 00:34:18;;;;;;;273.60;143.78;;;;;;;0.16;79.07;92866.09;1781425;80;21071;-52
2020/12/29 00:36:46;;;;;;;283.32;147.75;;;;;;;0.04;78.77;92861.38;1781494;80;21135;-52
2020/12/29 00:39:14;;;;;;;268.25;138.00;;;;;;;-0.05;79.10;92861.09;1781454;80;21072;-51
2020/12/29 00:41:43;;;;;;;270.10;143.68;;;;;;;-0.08;79.57;92860.59;1781393;80;21171;-54
2020/12/29 00:44:12;;;;;;;275.52;142.07;;;;;;;-0.05;79.58;92861.09;1781416;80;21466;-52
2020/12/29 00:46:40;;;;;;;256.82;137.45;;;;;;;-0.06;79.49;92858.22;1781369;80;21068;-50
2020/12/29 00:49:08;;;;;;;247.55;133.32;;;;;;;-0.03;79.82;92854.05;1780607;80;21063;-51
2020/12/29 00:51:37;;;;;;;243.73;128.07;;;;;;;0.02;79.43;92854.30;1753359;81;21498;-55
2020/12/29 00:54:05;;;;;;;292.10;153.70;;;;;;;-0.02;79.22;92853.64;1753380;81;21088;-54
2020/12/29 00:56:35;;;;;;;301.98;150.87;;;;;;;-0.01;79.35;92857.86;1750387;81;21393;-52
2020/12/29 00:59:04;;;;;;;271.57;140.65;;;;;;;-0.02;78.86;92846.11;1751145;81;21191;-51
2020/12/29 01:01:33;;;;;;;296.45;131.97;;;;;;;-0.04;78.68;92836.33;1751151;81;21215;-52
2020/12/29 01:04:19;;;;;;;335.52;164.07;;;;;;;-0.06;78.61;92835.25;1751100;82;21103;-52
2020/12/29 01:06:47;;;;;;;370.35;177.55;;;;;;;-0.15;78.62;92839.14;1751148;81;21584;-52
2020/12/29 01:09:17;;;;;;;352.65;170.70;;;;;;;-0.16;78.95;92826.82;1750917;82;21379;-52
2020/12/29 01:11:45;;;;;;;342.77;165.57;;;;;;;-0.10;78.74;92826.45;1751039;82;21524;-50
2020/12/29 01:14:13;;;;;;;330.73;160.72;;;;;;;-0.09;78.52;92817.94;1751153;82;21163;-53
2020/12/29 01:16:48;;;;;;;332.95;166.45;;;;;;;-0.09;78.51;92817.17;1749055;81;21211;-57
2020/12/29 01:19:16;;;;;;;271.70;126.02;;;;;;;-0.09;78.42;92810.41;1751115;82;21123;-51
2020/12/29 01:21:44;;;;;;;285.10;144.22;;;;;;;-0.05;78.65;92809.75;1751099;81;21219;-51
2020/12/29 01:24:12;;;;;;;292.37;149.68;;;;;;;-0.07;78.42;92785.84;1750862;82;21166;-53
2020/12/29 01:26:42;;;;;;;265.43;137.30;;;;;;;-0.08;78.42;92800.54;1750847;82;21575;-55
2020/12/29 01:29:10;;;;;;;286.20;145.65;;;;;;;-0.08;78.60;92796.48;1750996;82;21202;-51
2020/12/29 01:31:39;;;;;;;303.48;150.35;;;;;;;-0.02;78.97;92808.89;1751228;82;21163;-53
2020/12/29 01:34:07;;;;;;;289.23;146.60;;;;;;;0.01;78.51;92806.84;1751008;82;22293;-53
2020/12/29 01:36:35;;;;;;;285.75;141.82;;;;;;;0.00;78.43;92806.68;1751030;81;21107;-52
2020/12/29 01:39:03;;;;;;;266.98;139.45;;;;;;;-0.02;78.50;92805.00;1751086;80;21190;-52
2020/12/29 01:41:35;;;;;;;218.50;113.45;;;;;;;-0.08;77.86;92817.36;1751137;81;21171;-52
2020/12/29 01:44:15;;;;;;;239.08;127.20;;;;;;;-0.17;77.94;92800.99;1751294;82;21170;-52
2020/12/29 01:46:46;;;;;;;218.50;114.65;;;;;;;-0.29;77.57;92813.84;1751119;82;21375;-53
2020/12/29 01:49:17;;;;;;;213.70;113.30;;;;;;;-0.48;77.69;92822.24;1752792;80;21579;-50
2020/12/29 01:51:45;;;;;;;199.97;104.50;;;;;;;-0.59;78.23;92802.84;1780710;80;21127;-52
2020/12/29 01:54:13;;;;;;;218.40;103.02;;;;;;;-0.66;78.40;92803.61;1780536;80;21162;-52
2020/12/29 01:56:41;;;;;;;233.28;111.92;;;;;;;-0.71;78.92;92789.27;1780762;80;21575;-53
2020/12/29 01:59:12;;;;;;;188.55;95.57;;;;;;;-0.70;79.05;92793.49;1780890;80;22334;-53
2020/12/29 02:01:42;;;;;;;201.45;98.75;;;;;;;-0.74;79.44;92761.79;1780916;80;21187;-53
2020/12/29 02:04:12;;;;;;;224.88;105.25;;;;;;;-0.70;79.98;92753.00;1780563;80;21175;-54
2020/12/29 02:06:40;;;;;;;176.45;89.67;;;;;;;-0.61;80.16;92763.97;1780701;80;21162;-53
2020/12/29 02:09:09;;;;;;;170.38;90.38;;;;;;;-0.52;79.96;92763.53;1780664;80;21560;-51
2020/12/29 02:11:37;;;;;;;170.25;87.82;;;;;;;-0.46;80.14;92756.42;1780727;80;21429;-52
2020/12/29 02:14:08;;;;;;;190.47;98.03;;;;;;;-0.38;80.36;92767.80;1780613;80;21194;-50
2020/12/29 02:16:38;;;;;;;201.45;108.07;;;;;;;-0.31;80.29;92752.74;1780703;80;21207;-51
2020/12/29 02:19:06;;;;;;;221.50;113.25;;;;;;;-0.23;80.25;92751.38;1780608;80;21558;-53
2020/12/29 02:21:36;;;;;;;234.15;118.33;;;;;;;-0.20;80.00;92757.27;1780603;80;21071;-51
2020/12/29 02:24:05;;;;;;;227.18;114.70;;;;;;;-0.14;79.86;92759.61;1780612;80;21624;-50
2020/12/29 02:26:34;;;;;;;229.05;113.92;;;;;;;-0.09;79.74;92737.47;1780613;80;21150;-50
2020/12/29 02:29:04;;;;;;;226.73;113.15;;;;;;;-0.03;79.44;92728.41;1780674;80;21670;-49
2020/12/29 02:31:32;;;;;;;226.98;114.88;;;;;;;0.03;79.24;92731.50;1780644;80;21615;-49
2020/12/29 02:34:00;;;;;;;226.02;118.87;;;;;;;0.03;79.09;92741.57;1780566;80;21654;-50
2020/12/29 02:36:28;;;;;;;224.67;110.55;;;;;;;-0.02;79.01;92745.39;1780540;80;21386;-51
2020/12/29 02:38:56;;;;;;;214.10;107.32;;;;;;;-0.05;78.93;92746.25;1780594;80;21663;-49
2020/12/29 02:41:24;;;;;;;219.53;111.32;;;;;;;-0.08;78.80;92729.55;1780634;80;21182;-50
2020/12/29 02:43:51;;;;;;;214.90;112.80;;;;;;;-0.16;78.68;92724.16;1780493;80;21108;-50
2020/12/29 02:46:19;;;;;;;198.87;99.90;;;;;;;-0.23;78.81;92717.62;1780646;80;21166;-51
2020/12/29 02:48:47;;;;;;;201.60;103.35;;;;;;;-0.20;79.17;92717.50;1780572;80;21322;-50
2020/12/29 02:51:15;;;;;;;204.85;106.78;;;;;;;-0.19;78.90;92723.67;1755386;80;21165;-49
2020/12/29 02:53:43;;;;;;;173.60;89.90;;;;;;;-0.16;78.97;92714.13;1724839;81;21141;-51
2020/12/29 02:56:15;;;;;;;176.65;89.10;;;;;;;-0.12;79.00;92697.80;1752437;81;21592;-50
2020/12/29 02:58:43;;;;;;;137.50;69.53;;;;;;;-0.07;78.87;92694.59;1702862;81;21129;-51
2020/12/29 03:01:11;;;;;;;213.70;110.95;;;;;;;-0.06;78.96;92688.00;1752755;81;21204;-49
2020/12/29 03:03:39;;;;;;;195.38;102.27;;;;;;;-0.09;78.75;92683.42;1752470;81;21522;-50
2020/12/29 03:06:07;;;;;;;219.28;109.25;;;;;;;-0.12;78.95;92682.94;1752524;81;21105;-50
2020/12/29 03:08:35;;;;;;;213.60;109.95;;;;;;;-0.06;78.87;92682.59;1752708;81;21187;-50
2020/12/29 03:11:04;;;;;;;223.15;112.10;;;;;;;-0.08;78.53;92689.02;1752710;81;21209;-50
2020/12/29 03:13:33;;;;;;;243.70;125.20;;;;;;;-0.11;78.63;92695.26;1752720;81;21265;-49
2020/12/29 03:16:01;;;;;;;238.68;121.57;;;;;;;-0.04;78.91;92700.48;1752422;81;21148;-49
2020/12/29 03:18:29;;;;;;;224.65;116.95;;;;;;;0.04;78.49;92684.37;1752658;81;21231;-49
2020/12/29 03:20:57;;;;;;;219.90;115.03;;;;;;;0.07;78.44;92694.93;1752638;81;21080;-49
2020/12/29 03:23:25;;;;;;;188.65;102.42;;;;;;;0.10;78.41;92711.62;1752691;81;21132;-49
2020/12/29 03:25:53;;;;;;;191.82;104.70;;;;;;;0.20;78.50;92707.27;1752522;81;21210;-50
2020/12/29 03:28:21;;;;;;;175.87;93.60;;;;;;;0.25;78.02;92700.57;1752465;81;21152;-50
2020/12/29 03:30:49;;;;;;;162.37;83.12;;;;;;;0.23;78.08;92683.42;1752482;81;21199;-49
2020/12/29 03:33:17;;;;;;;214.12;108.35;;;;;;;0.18;77.68;92702.88;1752616;81;21159;-50
2020/12/29 03:35:45;;;;;;;236.43;115.57;;;;;;;0.02;77.59;92690.81;1752596;81;21721;-49
2020/12/29 03:38:13;;;;;;;189.97;94.92;;;;;;;-0.01;78.02;92702.48;1752431;81;22147;-49
2020/12/29 03:40:41;;;;;;;192.32;97.97;;;;;;;0.04;77.97;92701.94;1752600;81;21152;-50
2020/12/29 03:43:13;;;;;;;161.85;83.95;;;;;;;0.04;78.04;92700.59;1752552;81;21136;-49
2020/12/29 03:45:44;;;;;;;159.32;85.92;;;;;;;0.07;78.24;92706.48;1752657;81;22409;-48
2020/12/29 03:48:16;;;;;;;148.53;80.62;;;;;;;0.09;78.42;92686.56;1752705;81;21790;-49
2020/12/29 03:50:44;;;;;;;;;;;;;;;0.11;78.82;92722.02;1755155;81;21208;-50
2020/12/29 03:53:12;;;;;;;153.93;81.75;;;;;;;0.16;79.28;92706.62;1752556;81;20232;-49
2020/12/29 03:55:39;;;;;;;160.20;83.20;;;;;;;0.23;79.62;92663.14;1752395;81;21265;-50
2020/12/29 03:58:07;;;;;;;168.78;89.20;;;;;;;0.30;79.62;92680.52;1752524;81;21400;-49
2020/12/29 04:00:36;;;;;;;170.75;92.67;;;;;;;0.27;79.67;92667.88;1752584;81;21184;-50
2020/12/29 04:03:04;;;;;;;176.87;96.15;;;;;;;0.23;79.78;92668.55;1752570;81;21198;-50
2020/12/29 04:05:32;;;;;;;170.68;91.45;;;;;;;0.27;79.96;92667.88;1752563;81;21144;-50
2020/12/29 04:08:01;;;;;;;190.65;101.40;;;;;;;0.36;80.11;92680.13;1752586;81;21156;-50
2020/12/29 04:10:32;;;;;;;157.88;87.25;;;;;;;0.46;79.99;92665.55;1752875;81;21613;-50
2020/12/29 04:13:00;;;;;;;155.37;87.30;;;;;;;0.55;79.97;92673.74;1752770;81;21459;-48
2020/12/29 04:15:28;;;;;;;141.95;77.47;;;;;;;0.63;80.13;92660.14;1752743;81;21264;-50
2020/12/29 04:17:56;;;;;;;124.90;68.25;;;;;;;0.75;80.18;92674.27;1752810;81;21432;-50
2020/12/29 04:20:24;;;;;;;107.80;60.17;;;;;;;0.88;80.27;92684.47;1752713;81;21216;-52
2020/12/29 04:22:52;;;;;;;147.35;83.92;;;;;;;0.99;80.18;92668.63;1752703;81;21196;-50
2020/12/29 04:25:20;;;;;;;161.37;90.03;;;;;;;1.05;79.90;92673.67;1752789;81;21621;-50
2020/12/29 04:27:48;;;;;;;152.75;85.80;;;;;;;1.08;79.78;92710.69;1752814;81;21372;-49
2020/12/29 04:30:16;;;;;;;120.95;67.50;;;;;;;1.09;79.70;92715.49;1752560;81;21168;-49
2020/12/29 04:32:43;;;;;;;135.85;73.42;;;;;;;1.16;79.74;92702.48;1752733;81;21652;-50
2020/12/29 04:35:11;;;;;;;122.85;66.55;;;;;;;1.27;80.04;92717.79;1752696;81;21216;-50
2020/12/29 04:37:39;;;;;;;125.60;66.77;;;;;;;1.40;79.71;92702.85;1752738;81;21573;-50
2020/12/29 04:40:07;;;;;;;126.80;73.17;;;;;;;1.46;79.67;92726.23;1752849;81;21335;-50
2020/12/29 04:42:37;;;;;;;114.80;61.85;;;;;;;1.49;79.74;92725.36;1752756;81;21185;-49
2020/12/29 04:45:05;;;;;;;105.40;61.33;;;;;;;1.54;79.74;92740.30;1752768;81;21203;-51
2020/12/29 04:47:33;;;;;;;99.07;56.75;;;;;;;1.59;79.53;92746.52;1752689;81;21148;-51
2020/12/29 04:50:03;;;;;;;108.47;61.30;;;;;;;1.69;79.89;92746.76;1752663;81;21208;-51
2020/12/29 04:52:31;;;;;;;119.72;65.40;;;;;;;1.85;80.02;92748.69;1752898;81;23530;-53
2020/12/29 04:54:59;;;;;;;92.33;50.60;;;;;;;2.01;80.10;92731.66;1752717;81;21177;-50
2020/12/29 04:57:27;;;;;;;84.10;46.73;;;;;;;2.30;79.99;92739.52;1725316;81;21101;-54
2020/12/29 04:59:56;;;;;;;16.23;11.57;;;;;;;2.60;80.03;92735.47;1752664;81;21136;-50
2020/12/29 05:02:24;;;;;;;5.72;5.22;;;;;;;3.07;81.27;92753.59;1752780;81;21617;-51
2020/12/29 05:04:52;;;;;;;5.08;4.55;;;;;;;3.93;80.68;92736.25;1752772;81;21367;-50
2020/12/29 05:07:19;;;;;;;5.42;5.03;;;;;;;4.83;78.77;92741.52;1752553;81;21101;-51
2020/12/29 05:09:47;;;;;;;6.47;5.12;;;;;;;5.52;77.58;92728.49;1752680;81;21097;-52
2020/12/29 05:12:16;;;;;;;6.92;6.25;;;;;;;5.95;76.46;92730.68;1752635;81;21125;-53
2020/12/29 05:14:46;;;;;;;5.58;5.08;;;;;;;6.17;75.37;92722.29;1752737;81;21620;-53
2020/12/29 05:17:15;;;;;;;4.65;4.25;;;;;;;6.45;73.61;92747.38;1752649;81;21199;-55
2020/12/29 05:19:44;;;;;;;5.25;4.80;;;;;;;6.82;72.44;92739.73;1752723;81;21172;-52
2020/12/29 05:22:12;;;;;;;4.30;4.00;;;;;;;7.17;71.39;92730.99;1752591;81;21192;-50
2020/12/29 05:24:46;;;;;;;5.65;4.50;;;;;;;7.39;70.13;92727.98;1749637;81;21236;-52
2020/12/29 05:27:14;;;;;;;4.30;4.10;;;;;;;7.55;69.63;92728.81;1725579;81;21140;-51
2020/12/29 05:29:42;;;;;;;5.20;4.80;;;;;;;7.70;69.23;92741.10;1752753;81;21282;-51
2020/12/29 05:32:17;;;;;;;5.10;4.70;;;;;;;7.76;69.31;92745.42;1754283;81;21077;-53
2020/12/29 05:34:45;;;;;;;5.35;4.45;;;;;;;7.79;69.33;92751.91;1755937;81;21574;-50
2020/12/29 05:37:15;;;;;;;7.22;6.53;;;;;;;7.85;69.31;92727.49;1707408;81;21192;-51
2020/12/29 05:39:43;;;;;;;12.03;10.80;;;;;;;7.89;69.15;92751.30;1755934;81;21176;-52
2020/12/29 05:42:11;;;;;;;5.40;4.90;;;;;;;7.91;69.00;92741.26;1755874;81;21240;-51
2020/12/29 05:44:40;;;;;;;4.35;4.08;;;;;;;7.94;69.21;92758.09;1755870;81;21203;-52
2020/12/29 05:47:07;;;;;;;6.58;6.00;;;;;;;7.93;69.24;92749.14;1755849;81;21105;-50
2020/12/29 05:49:36;;;;;;;4.70;4.30;;;;;;;7.92;69.40;92757.19;1706631;81;21161;-51
2020/12/29 05:52:04;;;;;;;4.05;3.75;;;;;;;7.89;69.12;92748.56;1755360;80;21193;-51
2020/12/29 05:54:33;;;;;;;5.25;4.17;;;;;;;7.88;69.32;92740.84;1728124;81;21444;-51
2020/12/29 05:57:01;;;;;;;4.97;4.58;;;;;;;7.87;69.28;92759.87;1703931;81;21208;-52
2020/12/29 05:59:29;;;;;;;4.42;4.12;;;;;;;7.85;69.92;92765.08;1703996;81;21054;-50
2020/12/29 06:01:59;;;;;;;5.30;4.92;;;;;;;7.84;69.90;92749.25;1704122;81;21645;-50
2020/12/29 06:04:27;;;;;;;4.08;3.77;;;;;;;7.86;70.36;92755.63;1755366;80;21141;-50
2020/12/29 06:06:56;;;;;;;5.97;5.42;;;;;;;7.87;69.45;92766.09;1728135;81;21469;-50
2020/12/29 06:09:24;;;;;;;4.33;4.00;;;;;;;7.95;69.64;92771.91;1704406;81;21111;-51
2020/12/29 06:11:54;;;;;;;5.05;4.62;;;;;;;7.98;69.07;92779.94;1727893;81;21125;-52
2020/12/29 06:14:26;;;;;;;6.28;5.22;;;;;;;8.01;69.33;92776.23;1755416;80;21455;-51
2020/12/29 06:16:55;;;;;;;4.28;3.87;;;;;;;8.03;68.94;92784.72;1748087;80;21152;-54
2020/12/29 06:19:29;;;;;;;4.85;4.35;;;;;;;8.01;69.43;92792.66;1745108;80;21484;-52
2020/12/29 06:22:10;;;;;;;5.80;5.12;;;;;;;7.99;69.69;92789.65;1735351;81;21176;-52
2020/12/29 06:24:45;;;;;;;7.28;6.53;;;;;;;7.93;69.92;92782.59;1751778;80;21184;-53
2020/12/29 06:27:13;;;;;;;7.45;6.08;;;;;;;7.90;71.45;92787.02;1739812;80;21713;-51
2020/12/29 06:29:43;;;;;;;5.08;4.67;;;;;;;7.84;71.63;92804.00;1723236;80;21208;-53
2020/12/29 06:32:19;;;;;;;6.53;6.00;;;;;;;7.79;72.31;92810.75;1765856;80;21193;-53
2020/12/29 06:34:48;;;;;;;6.87;4.35;;;;;;;7.72;72.85;92810.53;1732901;80;21081;-52
2020/12/29 06:37:28;;;;;;;18.27;9.13;;;;;;;7.64;73.08;92808.66;1780480;80;21067;-52
2020/12/29 06:40:04;;;;;;;12.80;8.68;;;;;;;7.61;73.77;92821.33;1780353;80;21071;-52
2020/12/29 06:42:33;;;;;;;7.85;7.05;;;;;;;7.54;74.15;92826.42;1780490;80;21210;-53
2020/12/29 06:45:00;;;;;;;7.35;5.30;;;;;;;7.49;74.38;92836.05;1780635;80;21203;-53
2020/12/29 06:47:28;;;;;;;6.60;5.40;;;;;;;7.47;73.96;92831.66;1725564;80;21584;-55
2020/12/29 06:49:56;;;;;;;8.00;5.90;;;;;;;7.47;73.65;92832.27;1761972;80;21177;-51
2020/12/29 06:52:28;;;;;;;6.12;4.85;;;;;;;7.48;73.72;92848.84;1747599;82;21582;-52
2020/12/29 06:54:59;;;;;;;5.10;4.70;;;;;;;7.48;73.70;92855.69;1748580;80;21258;-55
2020/12/29 06:57:41;;;;;;;7.83;7.03;;;;;;;7.47;74.04;92865.09;1745736;82;21368;-56
2020/12/29 07:00:15;;;;;;;5.30;4.72;;;;;;;7.44;74.20;92887.33;1745558;81;21076;-52
2020/12/29 07:02:49;;;;;;;12.65;10.98;;;;;;;7.39;74.04;92890.73;1738337;82;21577;-53
2020/12/29 07:05:23;;;;;;;8.20;4.53;;;;;;;7.35;74.41;92888.77;1745526;80;21173;-54
2020/12/29 07:08:06;;;;;;;4.08;3.77;;;;;;;7.36;74.43;92890.28;1737460;80;21197;-54
2020/12/29 07:10:47;;;;;;;14.35;9.10;;;;;;;7.40;75.23;92877.19;1868685;75;22759;-58
2020/12/29 07:13:19;;;;;;;7.78;6.67;;;;;;;7.29;75.75;92886.56;1823810;77;21291;-55
2020/12/29 07:15:54;;;;;;;4.22;3.92;;;;;;;7.21;74.59;92900.47;1801822;78;22249;-55
2020/12/29 07:18:26;;;;;;;8.00;5.87;;;;;;;7.21;74.06;92896.38;1817039;78;21517;-54
2020/12/29 07:20:56;;;;;;;5.80;5.20;;;;;;;7.25;74.14;92905.14;1809299;77;21144;-55
2020/12/29 07:23:28;;;;;;;6.08;5.37;;;;;;;7.28;73.58;92898.72;1824972;76;21208;-53
2020/12/29 07:26:02;;;;;;;4.90;4.50;;;;;;;7.32;73.56;92897.18;1829131;76;26709;-56
2020/12/29 07:28:35;;;;;;;6.40;5.22;;;;;;;7.34;72.79;92887.27;1821530;75;21377;-55
2020/12/29 07:31:03;;;;;;;8.40;6.30;;;;;;;7.43;72.46;92900.86;1818915;76;21089;-58
2020/12/29 07:33:33;;;;;;;6.87;6.17;;;;;;;7.53;72.38;92922.78;1809158;76;21654;-56
2020/12/29 07:36:01;;;;;;;10.38;7.22;;;;;;;7.54;72.16;92932.49;1821193;78;21250;-54
2020/12/29 07:38:29;;;;;;;15.05;9.80;;;;;;;7.56;72.30;92938.88;1797523;78;21160;-54
2020/12/29 07:40:57;;;;;;;7.78;6.22;;;;;;;7.57;72.40;92932.95;1777785;78;22074;-54
2020/12/29 07:43:25;;;;;;;23.83;19.15;;;;;;;7.60;71.47;92947.05;1787337;78;21195;-55
2020/12/29 07:45:53;;;;;;;34.92;20.45;;;;;;;7.63;71.91;92950.20;1801420;79;21097;-59
2020/12/29 07:48:21;;;;;;;22.48;14.90;;;;;;;7.65;72.02;92956.55;1741845;81;21222;-55
2020/12/29 07:51:00;;;;;;;32.70;20.50;;;;;;;7.62;72.46;92956.13;1732331;81;21166;-51
2020/12/29 07:53:28;;;;;;;26.77;17.75;;;;;;;7.63;72.65;92978.16;1731608;81;21278;-57
2020/12/29 07:55:57;;;;;;;39.50;26.37;;;;;;;7.68;72.58;92985.11;1728185;81;21229;-57
2020/12/29 07:58:25;;;;;;;33.25;24.37;;;;;;;7.75;73.09;92995.70;1742189;80;21615;-53
2020/12/29 08:00:52;;;;;;;49.33;35.80;;;;;;;7.75;73.25;92984.75;1748197;81;21165;-53
2020/12/29 08:03:20;;;;;;;41.08;30.20;;;;;;;7.76;73.63;93004.05;1733359;81;21506;-55
2020/12/29 08:05:49;;;;;;;31.40;24.00;;;;;;;7.78;73.97;93027.59;1742488;80;21192;-48
2020/12/29 08:08:17;;;;;;;45.43;33.10;;;;;;;7.79;74.34;93031.84;1743932;81;21202;-54
2020/12/29 08:10:44;;;;;;;69.30;51.77;;;;;;;7.79;74.67;93024.23;1753547;80;21200;-54
2020/12/29 08:13:16;;;;;;;53.55;42.40;;;;;;;7.82;75.07;93021.32;1735224;81;21650;-54
2020/12/29 08:15:44;;;;;;;28.07;25.37;;;;;;;7.94;75.26;93032.62;1754668;80;21192;-55
2020/12/29 08:18:19;;;;;;;34.60;22.90;;;;;;;8.04;75.24;93047.71;1732886;81;22184;-53
2020/12/29 08:20:57;;;;;;;30.32;22.73;;;;;;;8.05;74.75;93056.70;1755604;80;21228;-55
2020/12/29 08:23:27;;;;;;;16.10;14.40;;;;;;;8.02;74.24;93051.54;1770641;79;21161;-54
2020/12/29 08:26:00;;;;;;;13.85;11.73;;;;;;;8.00;73.83;93055.36;1767076;79;22298;-55
2020/12/29 08:28:33;;;;;;;24.47;16.82;;;;;;;8.03;73.70;93058.52;1759219;79;21181;-55
2020/12/29 08:31:01;;;;;;;;;;;;;;;8.08;73.52;93067.44;1759153;80;21351;-53
2020/12/29 08:33:30;;;;;;;54.38;32.55;;;;;;;8.07;73.58;93063.20;1761642;80;20227;-55
2020/12/29 08:36:02;;;;;;;42.13;28.17;;;;;;;8.02;73.87;93071.30;1767728;79;21582;-61
2020/12/29 08:38:43;;;;;;;48.25;32.10;;;;;;;7.99;74.02;93069.52;1745664;81;21150;-54
2020/12/29 08:41:22;;;;;;;17.77;13.25;;;;;;;7.97;73.60;93088.39;1763901;79;21185;-54
2020/12/29 08:43:52;;;;;;;6.47;5.00;;;;;;;7.95;68.51;93097.09;1764050;79;21630;-52
2020/12/29 08:46:23;;;;;;;8.90;6.62;;;;;;;7.92;65.19;93095.27;1766860;79;21146;-54
2020/12/29 08:48:58;;;;;;;10.13;8.48;;;;;;;7.97;64.32;93107.56;1766226;79;21159;-57
2020/12/29 08:51:29;;;;;;;10.18;8.05;;;;;;;8.08;63.63;93113.25;1765184;80;21138;-55
2020/12/29 08:54:18;;;;;;;18.32;15.50;;;;;;;8.13;64.22;93106.52;1769189;79;21179;-52
2020/12/29 08:56:47;;;;;;;7.20;6.03;;;;;;;8.16;63.54;93126.71;1768525;79;21265;-52
2020/12/29 08:59:17;;;;;;;6.22;5.12;;;;;;;8.15;61.83;93122.46;1771515;79;21202;-53
2020/12/29 09:02:00;;;;;;;6.58;5.97;;;;;;;8.17;60.86;93144.05;1765898;79;21170;-56
2020/12/29 09:04:40;;;;;;;5.55;4.33;;;;;;;8.15;61.49;93135.55;1766699;79;21178;-55
2020/12/29 09:07:12;;;;;;;4.33;3.35;;;;;;;8.14;60.10;93154.58;1754466;80;21376;-54
2020/12/29 09:09:57;;;;;;;4.28;3.92;;;;;;;8.11;59.67;93134.22;1756420;80;21071;-54
2020/12/29 09:12:32;;;;;;;;;;;;;;;8.07;58.77;93141.23;1765525;80;21623;-55
2020/12/29 09:15:07;;;;;;;5.87;5.05;;;;;;;8.05;59.18;93143.69;1765523;79;20493;-54
2020/12/29 09:17:40;;;;;;;6.97;5.83;;;;;;;8.03;58.32;93134.45;1762307;80;21178;-56
2020/12/29 09:20:14;;;;;;;11.00;9.80;;;;;;;8.06;57.34;93135.63;1764416;79;21611;-54
2020/12/29 09:22:54;;;;;;;4.35;3.87;;;;;;;8.14;56.88;93142.86;1766916;80;21185;-54
2020/12/29 09:25:42;;;;;;;4.42;4.08;;;;;;;8.31;53.03;93133.77;1763370;80;21183;-52
2020/12/29 09:28:23;;;;;;;5.45;4.95;;;;;;;8.66;50.80;93149.66;1764502;80;21203;-55
2020/12/29 09:31:07;;;;;;;5.60;4.65;;;;;;;9.06;49.58;93135.50;1763548;80;21135;-53
2020/12/29 09:33:38;;;;;;;4.83;4.40;;;;;;;9.44;48.79;93144.16;1753604;81;21054;-54
2020/12/29 09:36:25;;;;;;;5.03;4.53;;;;;;;9.73;47.32;93156.39;1750954;80;22110;-56
2020/12/29 09:41:28;;;;;;;3.33;3.12;;;;;;;10.45;45.83;93149.17;1806624;77;25745;-55
2020/12/29 09:43:55;;;;;;;3.30;3.10;;;;;;;10.52;45.12;93172.73;1762600;78;21122;-60
2020/12/29 09:46:23;;;;;;;5.92;4.97;;;;;;;10.40;45.77;93158.13;1690704;82;21777;-61
2020/12/29 09:48:52;;;;;;;5.40;4.87;;;;;;;10.24;46.14;93153.80;1716945;81;21651;-59
2020/12/29 09:51:21;;;;;;;3.55;3.25;;;;;;;10.07;46.91;93151.48;1759321;80;21061;-58
2020/12/29 09:53:50;;;;;;;6.92;5.45;;;;;;;10.03;46.04;93148.96;1720727;81;21623;-57
2020/12/29 09:56:22;;;;;;;9.68;8.05;;;;;;;10.25;46.11;93140.96;1753827;80;21120;-59
2020/12/29 09:58:51;;;;;;;6.33;5.10;;;;;;;10.59;46.48;93147.55;1744974;80;21475;-58
2020/12/29 10:01:19;;;;;;;5.83;5.00;;;;;;;10.79;47.10;93148.25;1775054;79;21164;-57
2020/12/29 10:03:47;;;;;;;8.25;4.40;;;;;;;10.85;44.86;93142.94;1776542;80;21096;-58
2020/12/29 10:06:15;;;;;;;5.35;4.03;;;;;;;10.93;44.70;93139.87;1750156;80;21134;-61
2020/12/29 10:08:43;;;;;;;5.92;5.30;;;;;;;11.13;44.26;93143.16;1766310;80;21230;-56
2020/12/29 10:11:12;;;;;;;4.40;3.25;;;;;;;11.41;44.13;93141.34;1764918;79;22148;-56
2020/12/29 10:13:40;;;;;;;11.08;4.83;;;;;;;11.57;43.70;93133.20;1765232;80;21672;-56
2020/12/29 10:16:09;;;;;;;5.17;4.15;;;;;;;11.83;43.48;93138.00;1766346;80;21135;-59
2020/12/29 10:18:38;;;;;;;5.17;3.20;;;;;;;12.10;42.95;93129.09;1757722;80;21278;-58
2020/12/29 10:21:07;;;;;;;3.98;3.65;;;;;;;12.23;42.41;93126.63;1698580;83;21180;-58
2020/12/29 10:23:35;;;;;;;3.70;3.35;;;;;;;12.14;42.16;93130.23;1672264;84;22098;-61
2020/12/29 10:26:03;;;;;;;5.05;4.20;;;;;;;12.13;42.22;93133.63;1710802;82;21171;-58
2020/12/29 10:28:32;;;;;;;6.30;5.20;;;;;;;12.27;42.99;93129.16;1735712;80;21679;-58
2020/12/29 10:31:00;;;;;;;8.68;4.53;;;;;;;12.40;42.37;93132.95;1743160;81;21073;-57
2020/12/29 10:33:28;;;;;;;5.80;4.22;;;;;;;12.42;42.77;93116.66;1689994;82;21224;-59
2020/12/29 10:35:57;;;;;;;11.63;6.92;;;;;;;12.48;42.78;93107.77;1708873;81;21368;-57
2020/12/29 10:38:25;;;;;;;7.50;3.75;;;;;;;12.41;42.81;93108.27;1727465;82;21749;-58
2020/12/29 10:40:52;;;;;;;5.42;4.78;;;;;;;12.18;42.40;93115.58;1730912;79;21603;-56
2020/12/29 10:43:20;;;;;;;9.50;6.12;;;;;;;11.85;43.54;93111.31;1776357;80;21205;-58
2020/12/29 10:45:51;;;;;;;8.05;5.30;;;;;;;11.75;43.36;93124.54;1757293;79;21206;-59
2020/12/29 10:48:23;;;;;;;10.78;5.25;;;;;;;11.78;43.59;93122.20;1782056;80;22097;-58
2020/12/29 10:50:52;;;;;;;3.98;3.47;;;;;;;11.72;43.80;93118.64;1774274;79;21172;-57
2020/12/29 10:53:20;;;;;;;13.40;7.00;;;;;;;11.69;43.41;93127.91;1744636;80;21088;-55
2020/12/29 10:55:50;;;;;;;8.63;5.87;;;;;;;11.69;43.09;93136.80;1753010;80;21545;-57
2020/12/29 10:58:18;;;;;;;8.55;6.40;;;;;;;11.87;43.17;93139.89;1770468;80;21461;-59
2020/12/29 11:00:50;;;;;;;9.33;7.05;;;;;;;12.16;42.73;93151.16;1767765;79;22544;-56
2020/12/29 11:03:18;;;;;;;6.37;4.78;;;;;;;12.34;42.09;93165.28;1766707;79;21652;-57
2020/12/29 11:05:46;;;;;;;10.43;8.10;;;;;;;12.36;40.94;93168.30;1770758;80;21178;-57
2020/12/29 11:08:14;;;;;;;8.48;5.50;;;;;;;12.42;41.30;93165.56;1751358;79;21187;-56
2020/12/29 11:10:42;;;;;;;3.65;3.25;;;;;;;12.56;41.12;93162.59;1766034;79;21227;-59
2020/12/29 11:13:11;;;;;;;4.28;3.30;;;;;;;12.78;40.17;93162.63;1743585;80;21437;-58
2020/12/29 11:15:39;;;;;;;5.67;4.22;;;;;;;13.10;39.79;93163.97;1742159;79;21197;-56
2020/12/29 11:18:07;;;;;;;3.70;3.27;;;;;;;13.39;39.45;93177.27;1746661;80;21205;-56
2020/12/29 11:20:35;;;;;;;4.12;3.35;;;;;;;13.32;39.35;93178.55;1767861;80;21180;-61
2020/12/29 11:23:04;;;;;;;4.15;2.98;;;;;;;13.08;39.20;93191.33;1772619;80;21170;-57
2020/12/29 11:25:33;;;;;;;7.05;2.80;;;;;;;13.06;39.34;93184.91;1775717;80;21273;-57
2020/12/29 11:28:01;;;;;;;3.72;2.47;;;;;;;13.19;39.05;93189.33;1726147;80;21224;-57
2020/12/29 11:30:29;;;;;;;4.25;3.20;;;;;;;13.47;38.33;93201.12;1767050;79;21189;-59
2020/12/29 11:32:57;;;;;;;5.28;3.30;;;;;;;13.89;38.25;93201.47;1765386;80;21216;-56
2020/12/29 11:35:25;;;;;;;3.02;2.60;;;;;;;14.08;37.59;93199.67;1756932;79;21189;-57
2020/12/29 11:37:53;;;;;;;5.17;4.12;;;;;;;14.29;37.40;93198.89;1763516;80;22297;-58
2020/12/29 11:40:21;;;;;;;3.33;2.42;;;;;;;14.45;37.15;93216.81;1769069;79;21153;-56